createdAt,value
2022-11-24T00:01:11.219Z,7.77
2022-11-24T00:03:37.835Z,7.72
2022-11-24T00:06:07.531Z,7.74
2022-11-24T00:08:35.754Z,7.77
2022-11-24T00:11:04.096Z,7.77
2022-11-24T00:13:30.446Z,7.77
2022-11-24T00:16:24.283Z,7.81
2022-11-24T00:18:53.011Z,7.84
2022-11-24T00:21:20.200Z,7.82
2022-11-24T00:23:47.765Z,7.80
2022-11-24T00:26:23.332Z,7.83
2022-11-24T00:28:51.078Z,7.80
2022-11-24T00:31:20.619Z,7.80
2022-11-24T00:33:48.843Z,7.78
2022-11-24T00:36:16.757Z,7.82
2022-11-24T00:38:43.891Z,7.80
2022-11-24T00:41:10.567Z,7.80
2022-11-24T00:43:36.933Z,7.87
2022-11-24T00:46:03.470Z,7.85
2022-11-24T00:48:30.566Z,7.87
2022-11-24T00:51:01.921Z,7.92
2022-11-24T00:53:29.307Z,7.92
2022-11-24T00:55:55.881Z,7.89
2022-11-24T00:58:24.154Z,7.92
2022-11-24T01:00:51.483Z,7.91
2022-11-24T01:03:19.480Z,7.91
2022-11-24T01:05:45.982Z,7.87
2022-11-24T01:08:12.875Z,7.90
2022-11-24T01:10:39.274Z,7.86
2022-11-24T01:13:05.688Z,7.82
2022-11-24T01:15:35.450Z,7.86
2022-11-24T01:18:02.414Z,7.82
2022-11-24T01:20:28.902Z,7.83
2022-11-24T01:22:55.275Z,7.79
2022-11-24T01:25:21.631Z,7.78
2022-11-24T01:27:48.026Z,7.77
2022-11-24T01:30:14.418Z,7.79
2022-11-24T01:32:40.767Z,7.78
2022-11-24T01:35:07.661Z,7.76
2022-11-24T01:37:34.080Z,7.72
2022-11-24T01:40:00.617Z,7.70
2022-11-24T01:42:36.427Z,7.70
2022-11-24T01:45:28.845Z,7.75
2022-11-24T01:47:55.745Z,7.74
2022-11-24T01:50:22.772Z,7.76
2022-11-24T01:52:53.951Z,7.79
2022-11-24T01:55:30.782Z,7.84
2022-11-24T01:58:07.842Z,7.84
2022-11-24T02:00:38.141Z,7.82
2022-11-24T02:03:04.553Z,7.76
2022-11-24T02:05:48.361Z,7.80
2022-11-24T02:08:26.825Z,7.80
2022-11-24T02:10:54.660Z,7.75
2022-11-24T02:13:22.271Z,7.75
2022-11-24T02:15:48.678Z,7.71
2022-11-24T02:18:15.149Z,7.70
2022-11-24T02:20:41.498Z,7.70
2022-11-24T02:23:31.003Z,7.76
2022-11-24T02:26:20.282Z,7.69
2022-11-24T02:28:47.165Z,7.69
2022-11-24T02:31:13.846Z,7.66
2022-11-24T02:33:40.745Z,7.68
2022-11-24T02:36:07.384Z,7.67
2022-11-24T02:38:35.160Z,7.70
2022-11-24T02:41:06.197Z,7.75
2022-11-24T02:43:39.052Z,7.72
2022-11-24T02:46:05.486Z,7.72
2022-11-24T02:48:31.841Z,7.74
2022-11-24T02:50:58.138Z,7.76
2022-11-24T02:53:24.458Z,7.77
2022-11-24T02:55:50.836Z,7.75
2022-11-24T02:58:17.168Z,7.77
2022-11-24T03:00:43.497Z,7.73
2022-11-24T03:03:10.188Z,7.69
2022-11-24T03:05:36.581Z,7.67
2022-11-24T03:08:03.432Z,7.67
2022-11-24T03:10:29.814Z,7.63
2022-11-24T03:12:56.234Z,7.63
2022-11-24T03:15:23.901Z,7.59
2022-11-24T03:17:50.497Z,7.60
2022-11-24T03:20:17.156Z,7.57
2022-11-24T03:22:43.476Z,7.56
2022-11-24T03:25:09.931Z,7.57
2022-11-24T03:27:36.320Z,7.57
2022-11-24T03:30:04.062Z,7.54
2022-11-24T03:32:30.461Z,7.49
2022-11-24T03:34:56.841Z,7.52
2022-11-24T03:37:23.203Z,7.53
2022-11-24T03:39:49.808Z,7.57
2022-11-24T03:42:21.249Z,7.63
2022-11-24T03:44:47.586Z,7.61
2022-11-24T03:47:13.976Z,7.65
2022-11-24T03:49:41.448Z,7.68
2022-11-24T03:52:08.512Z,7.71
2022-11-24T03:54:35.500Z,7.68
2022-11-24T03:57:02.018Z,7.67
2022-11-24T03:59:28.336Z,7.60
2022-11-24T04:01:54.866Z,7.62
2022-11-24T04:04:21.253Z,7.57
2022-11-24T04:06:47.605Z,7.59
2022-11-24T04:09:13.934Z,7.58
2022-11-24T04:11:58.982Z,7.59
2022-11-24T04:14:25.450Z,7.56
2022-11-24T04:16:51.781Z,7.60
2022-11-24T04:19:18.120Z,7.63
2022-11-24T04:21:44.517Z,7.66
2022-11-24T04:24:10.826Z,7.65
2022-11-24T04:26:37.438Z,7.67
2022-11-24T04:29:03.875Z,7.68
2022-11-24T04:31:30.267Z,7.67
2022-11-24T04:33:56.644Z,7.63
2022-11-24T04:36:22.998Z,7.63
2022-11-24T04:39:24.034Z,7.62
2022-11-24T04:41:37.996Z,7.63
2022-11-24T04:44:04.419Z,7.64
2022-11-24T04:46:31.326Z,7.59
2022-11-24T04:48:57.705Z,7.59
2022-11-24T04:51:24.165Z,7.56
2022-11-24T04:53:50.526Z,7.56
2022-11-24T04:56:16.894Z,7.54
2022-11-24T04:58:43.242Z,7.52
2022-11-24T05:01:09.793Z,7.58
2022-11-24T05:03:36.762Z,7.61
2022-11-24T05:06:03.160Z,7.60
2022-11-24T05:08:29.544Z,7.58
2022-11-24T05:10:55.907Z,7.66
2022-11-24T05:13:22.325Z,7.65
2022-11-24T05:15:48.714Z,7.67
2022-11-24T05:18:16.584Z,7.71
2022-11-24T05:20:44.708Z,7.74
2022-11-24T05:23:11.790Z,7.78
2022-11-24T05:25:38.133Z,7.77
2022-11-24T05:28:08.708Z,7.86
2022-11-24T05:30:36.852Z,7.88
2022-11-24T05:33:08.324Z,7.90
2022-11-24T05:35:36.347Z,7.88
2022-11-24T05:38:04.211Z,7.88
2022-11-24T05:40:31.553Z,7.89
2022-11-24T05:42:57.915Z,7.91
2022-11-24T05:45:24.357Z,7.91
2022-11-24T05:47:51.367Z,7.85
2022-11-24T05:50:19.264Z,7.89
2022-11-24T05:52:45.792Z,7.88
2022-11-24T05:55:13.311Z,7.87
2022-11-24T05:57:39.731Z,7.82
2022-11-24T06:00:08.722Z,7.83
2022-11-24T06:02:35.410Z,7.82
2022-11-24T06:05:01.949Z,7.79
2022-11-24T06:07:28.340Z,7.78
2022-11-24T06:09:54.713Z,7.76
2022-11-24T06:12:21.093Z,7.74
2022-11-24T06:14:47.498Z,7.72
2022-11-24T06:17:13.933Z,7.70
2022-11-24T06:19:42.189Z,7.69
2022-11-24T06:22:08.761Z,7.70
2022-11-24T06:24:35.302Z,7.69
2022-11-24T06:27:01.882Z,7.71
2022-11-24T06:29:28.245Z,7.73
2022-11-24T06:31:54.661Z,7.71
2022-11-24T06:34:21.064Z,7.70
2022-11-24T06:36:47.394Z,7.73
2022-11-24T06:39:13.739Z,7.73
2022-11-24T06:41:40.083Z,7.73
2022-11-24T06:44:06.395Z,7.75
2022-11-24T06:46:32.897Z,7.72
2022-11-24T06:49:02.341Z,7.72
2022-11-24T06:51:28.752Z,7.67
2022-11-24T06:53:55.400Z,7.71
2022-11-24T06:56:22.207Z,7.72
2022-11-24T06:58:51.225Z,7.76
2022-11-24T07:01:29.153Z,7.76
2022-11-24T07:03:56.893Z,7.68
2022-11-24T07:06:24.771Z,7.60
2022-11-24T07:08:51.736Z,7.60
2022-11-24T07:11:21.048Z,7.57
2022-11-24T07:13:48.199Z,7.58
2022-11-24T07:16:25.380Z,7.66
2022-11-24T07:18:53.192Z,7.65
2022-11-24T07:21:21.633Z,7.69
2022-11-24T07:23:49.373Z,7.70
2022-11-24T07:26:15.894Z,7.71
2022-11-24T07:28:42.316Z,7.76
2022-11-24T07:31:20.230Z,7.79
2022-11-24T07:33:51.108Z,7.80
2022-11-24T07:36:18.025Z,7.82
2022-11-24T07:38:44.583Z,7.82
2022-11-24T07:41:12.511Z,7.87
2022-11-24T07:43:39.799Z,7.90
2022-11-24T07:46:08.140Z,7.91
2022-11-24T07:48:34.677Z,7.88
2022-11-24T07:51:02.591Z,7.92
2022-11-24T07:53:29.397Z,7.87
2022-11-24T07:55:58.047Z,7.87
2022-11-24T07:58:28.866Z,7.87
2022-11-24T08:00:58.425Z,7.80
2022-11-24T08:03:25.537Z,7.80
2022-11-24T08:06:22.797Z,7.86
2022-11-24T08:08:46.878Z,7.86
2022-11-24T08:11:15.640Z,7.88
2022-11-24T08:13:42.416Z,7.93
2022-11-24T08:16:11.329Z,7.91
2022-11-24T08:18:38.467Z,7.92
2022-11-24T08:21:06.077Z,7.96
2022-11-24T08:23:32.814Z,7.93
2022-11-24T08:26:04.921Z,7.95
2022-11-24T08:28:32.766Z,8.03
2022-11-24T08:31:08.495Z,7.99
2022-11-24T08:33:35.261Z,8.05
2022-11-24T08:36:10.455Z,8.14
2022-11-24T08:38:37.404Z,8.11
2022-11-24T08:41:06.470Z,8.13
2022-11-24T08:43:33.442Z,8.11
2022-11-24T08:46:06.146Z,8.13
2022-11-24T08:48:33.250Z,8.18
2022-11-24T08:51:07.054Z,8.22
2022-11-24T08:53:33.634Z,8.14
2022-11-24T08:56:01.008Z,8.17
2022-11-24T08:58:28.988Z,8.22
2022-11-24T09:00:56.589Z,8.26
2022-11-24T09:03:22.970Z,8.26
2022-11-24T09:05:52.195Z,8.29
2022-11-24T09:08:19.224Z,8.32
2022-11-24T09:10:45.583Z,8.31
2022-11-24T09:13:12.009Z,8.30
2022-11-24T09:15:38.383Z,8.25
2022-11-24T09:18:05.394Z,8.22
2022-11-24T09:20:31.725Z,8.23
2022-11-24T09:22:58.113Z,8.20
2022-11-24T09:25:24.586Z,8.24
2022-11-24T09:27:51.317Z,8.23
2022-11-24T09:30:17.843Z,8.21
2022-11-24T09:32:44.249Z,8.21
2022-11-24T09:35:10.583Z,8.23
2022-11-24T09:37:37.167Z,8.21
2022-11-24T09:40:03.996Z,8.27
2022-11-24T09:42:53.285Z,8.34
2022-11-24T09:46:03.426Z,8.35
2022-11-24T09:48:50.333Z,8.43
2022-11-24T09:51:19.289Z,8.42
2022-11-24T09:53:54.973Z,8.44
2022-11-24T09:56:28.422Z,8.42
2022-11-24T09:59:02.903Z,8.34
2022-11-24T10:01:35.567Z,8.31
2022-11-24T10:04:06.279Z,8.29
2022-11-24T10:06:44.472Z,8.38
2022-11-24T10:09:40.009Z,8.48
2022-11-24T10:12:44.141Z,8.54
2022-11-24T10:15:30.786Z,8.60
2022-11-24T10:18:26.908Z,8.69
2022-11-24T10:21:17.425Z,8.77
2022-11-24T10:24:08.845Z,8.74
2022-11-24T10:26:37.868Z,8.83
2022-11-24T10:29:41.908Z,8.90
2022-11-24T10:32:35.402Z,8.93
2022-11-24T10:35:24.894Z,9.00
2022-11-24T10:37:57.876Z,8.90
2022-11-24T10:43:22.960Z,9.04
2022-11-24T10:45:50.058Z,9.13
2022-11-24T10:48:24.102Z,9.16
2022-11-24T10:50:56.608Z,9.24
2022-11-24T10:53:35.391Z,9.28
2022-11-24T10:56:05.130Z,9.32
2022-11-24T10:58:37.697Z,9.30
2022-11-24T11:01:14.066Z,9.36
2022-11-24T11:03:49.393Z,9.35
2022-11-24T11:06:23.726Z,9.43
2022-11-24T11:08:50.379Z,9.47
2022-11-24T11:11:27.164Z,9.49
2022-11-24T11:14:04.225Z,9.58
2022-11-24T11:16:53.456Z,9.69
2022-11-24T11:19:49.738Z,9.68
2022-11-24T11:22:24.046Z,9.77
2022-11-24T11:25:22.457Z,9.83
2022-11-24T11:27:48.964Z,9.84
2022-11-24T11:36:12.109Z,9.97
2022-11-24T11:38:40.377Z,10.01
2022-11-24T11:41:14.324Z,10.15
2022-11-24T11:43:41.572Z,10.17
2022-11-24T11:46:07.981Z,10.23
2022-11-24T11:48:43.245Z,10.34
2022-11-24T11:51:25.634Z,10.37
2022-11-24T11:54:09.244Z,10.41
2022-11-24T11:56:46.479Z,10.52
2022-11-24T12:00:04.927Z,10.68
2022-11-24T12:02:36.917Z,10.68
2022-11-24T12:05:44.834Z,10.79
2022-11-24T12:09:03.139Z,10.85
2022-11-24T12:11:59.122Z,10.94
2022-11-24T12:14:44.029Z,10.94
2022-11-24T12:17:28.747Z,10.93
2022-11-24T12:20:35.902Z,10.87
2022-11-24T12:23:30.517Z,10.92
2022-11-24T12:26:16.805Z,11.01
2022-11-24T12:28:52.301Z,11.13
2022-11-24T12:31:35.077Z,11.20
2022-11-24T12:34:16.813Z,11.32
2022-11-24T12:37:00.062Z,11.32
2022-11-24T12:39:38.598Z,11.36
2022-11-24T12:42:09.748Z,11.38
2022-11-24T12:44:50.234Z,11.41
2022-11-24T12:47:29.277Z,11.46
2022-11-24T12:50:19.112Z,11.40
2022-11-24T12:52:58.613Z,11.39
2022-11-24T12:55:27.721Z,11.40
2022-11-24T12:58:07.696Z,11.40
2022-11-24T13:00:47.919Z,11.46
2022-11-24T13:03:14.288Z,11.48
2022-11-24T13:06:03.174Z,11.66
2022-11-24T13:08:30.891Z,11.66
2022-11-24T13:11:23.458Z,11.64
2022-11-24T13:14:14.829Z,11.69
2022-11-24T13:17:21.864Z,11.66
2022-11-24T13:19:40.046Z,11.73
2022-11-24T13:22:09.312Z,11.78
2022-11-24T13:24:38.996Z,11.79
2022-11-24T13:27:26.557Z,11.84
2022-11-24T13:29:54.220Z,11.78
2022-11-24T13:32:23.539Z,11.67
2022-11-24T13:34:54.652Z,11.73
2022-11-24T13:37:31.272Z,11.73
2022-11-24T13:40:23.013Z,11.70
2022-11-24T13:43:01.121Z,11.65
2022-11-24T13:45:39.777Z,11.65
2022-11-24T13:48:18.605Z,11.59
2022-11-24T13:50:51.674Z,11.59
2022-11-24T13:53:42.676Z,11.54
2022-11-24T13:56:23.773Z,11.50
2022-11-24T13:59:02.984Z,11.51
2022-11-24T14:01:36.624Z,11.44
2022-11-24T14:04:33.977Z,11.36
2022-11-24T14:09:52.231Z,11.19
2022-11-24T14:12:26.646Z,11.19
2022-11-24T14:14:57.434Z,11.13
2022-11-24T14:17:26.664Z,11.12
2022-11-24T14:19:57.885Z,11.06
2022-11-24T14:22:26.741Z,11.07
2022-11-24T14:24:55.880Z,11.01
2022-11-24T14:27:28.447Z,11.05
2022-11-24T14:30:16.797Z,11.03
2022-11-24T14:33:00.895Z,11.05
2022-11-24T14:35:30.074Z,10.98
2022-11-24T14:37:56.672Z,10.93
2022-11-24T14:40:40.602Z,10.93
2022-11-24T14:43:17.651Z,10.93
2022-11-24T14:45:54.862Z,10.89
2022-11-24T14:48:29.000Z,10.87
2022-11-24T14:51:16.033Z,10.81
2022-11-24T14:53:45.309Z,10.79
2022-11-24T14:56:29.914Z,10.75
2022-11-24T14:58:57.682Z,10.72
2022-11-24T15:01:26.803Z,10.73
2022-11-24T15:04:32.293Z,10.67
2022-11-24T15:07:03.308Z,10.69
2022-11-24T15:09:32.476Z,10.64
2022-11-24T15:12:05.751Z,10.56
2022-11-24T15:14:34.542Z,10.50
2022-11-24T15:17:01.584Z,10.48
2022-11-24T15:19:33.542Z,10.46
2022-11-24T15:22:00.312Z,10.40
2022-11-24T15:24:27.296Z,10.38
2022-11-24T15:27:01.078Z,10.36
2022-11-24T15:29:27.374Z,10.28
2022-11-24T15:31:53.779Z,10.19
2022-11-24T15:34:20.254Z,10.17
2022-11-24T15:36:46.594Z,10.13
2022-11-24T15:39:12.922Z,10.07
2022-11-24T15:41:40.657Z,10.07
2022-11-24T15:44:07.847Z,9.96
2022-11-24T15:46:38.056Z,9.93
2022-11-24T15:49:05.452Z,9.90
2022-11-24T15:51:32.004Z,9.84
2022-11-24T15:54:00.994Z,9.82
2022-11-24T15:56:33.879Z,9.81
2022-11-24T15:59:01.558Z,9.77
2022-11-24T16:01:31.416Z,9.75
2022-11-24T16:03:57.885Z,9.65
2022-11-24T16:06:25.482Z,9.60
2022-11-24T16:08:56.401Z,9.60
2022-11-24T16:11:23.362Z,9.56
2022-11-24T16:13:53.465Z,9.52
2022-11-24T16:16:22.289Z,9.52
2022-11-24T16:18:48.833Z,9.46
2022-11-24T16:21:15.233Z,9.43
2022-11-24T16:23:41.655Z,9.37
2022-11-24T16:26:08.083Z,9.33
2022-11-24T16:28:34.651Z,9.33
2022-11-24T16:31:01.355Z,9.23
2022-11-24T16:33:30.598Z,9.28
2022-11-24T16:35:57.106Z,9.21
2022-11-24T16:38:23.574Z,9.17
2022-11-24T16:40:54.579Z,9.15
2022-11-24T16:43:21.005Z,9.14
2022-11-24T16:45:59.890Z,9.13
2022-11-24T16:48:26.318Z,9.11
2022-11-24T16:50:52.711Z,9.11
2022-11-24T16:53:19.166Z,9.13
2022-11-24T16:55:56.639Z,9.12
2022-11-24T16:58:23.081Z,9.10
2022-11-24T17:00:49.959Z,9.05
2022-11-24T17:03:16.430Z,9.02
2022-11-24T17:05:42.823Z,8.99
2022-11-24T17:08:09.197Z,8.95
2022-11-24T17:10:39.556Z,8.96
2022-11-24T17:13:05.883Z,8.83
2022-11-24T17:15:35.506Z,8.79
2022-11-24T17:20:50.936Z,8.77
2022-11-24T17:23:19.480Z,8.76
2022-11-24T17:25:45.913Z,8.70
2022-11-24T17:28:12.313Z,8.68
2022-11-24T17:30:38.729Z,8.68
2022-11-24T17:33:05.119Z,8.66
2022-11-24T17:35:34.000Z,8.70
2022-11-24T17:38:01.220Z,8.66
2022-11-24T17:40:29.543Z,8.59
2022-11-24T17:43:00.223Z,8.62
2022-11-24T17:45:28.494Z,8.59
2022-11-24T17:47:56.094Z,8.55
2022-11-24T17:50:25.742Z,8.56
2022-11-24T17:52:52.336Z,8.52
2022-11-24T17:55:18.636Z,8.55
2022-11-24T17:57:45.027Z,8.57
2022-11-24T18:00:12.060Z,8.59
2022-11-24T18:02:38.713Z,8.56
2022-11-24T18:05:05.382Z,8.60
2022-11-24T18:07:31.959Z,8.59
2022-11-24T18:09:58.338Z,8.64
2022-11-24T18:12:24.765Z,8.58
2022-11-24T18:14:51.075Z,8.58
2022-11-24T18:17:17.409Z,8.52
2022-11-24T18:19:43.761Z,8.50
2022-11-24T18:22:10.253Z,8.44
2022-11-24T18:24:36.956Z,8.46
2022-11-24T18:27:03.591Z,8.43
2022-11-24T18:29:29.968Z,8.42
2022-11-24T18:31:56.443Z,8.44
2022-11-24T18:34:24.812Z,8.43
2022-11-24T18:36:54.156Z,8.38
2022-11-24T18:39:20.632Z,8.35
2022-11-24T18:41:47.188Z,8.36
2022-11-24T18:44:13.750Z,8.30
2022-11-24T18:46:40.220Z,8.36
2022-11-24T18:49:07.142Z,8.38
2022-11-24T18:51:34.117Z,8.40
2022-11-24T18:54:02.112Z,8.39
2022-11-24T18:56:29.120Z,8.40
2022-11-24T18:58:56.452Z,8.42
2022-11-24T19:01:28.260Z,8.40
2022-11-24T19:03:57.137Z,8.44
2022-11-24T19:06:28.596Z,8.36
2022-11-24T19:08:55.614Z,8.40
2022-11-24T19:11:24.856Z,8.37
2022-11-24T19:13:51.652Z,8.40
2022-11-24T19:16:19.823Z,8.36
2022-11-24T19:18:51.995Z,8.29
2022-11-24T19:21:20.505Z,8.29
2022-11-24T19:23:46.879Z,8.26
2022-11-24T19:26:13.459Z,8.24
2022-11-24T19:28:39.922Z,8.18
2022-11-24T19:31:09.989Z,8.23
2022-11-24T19:33:36.368Z,8.18
2022-11-24T19:36:09.969Z,8.28
2022-11-24T19:38:36.440Z,8.17
2022-11-24T19:41:07.812Z,8.14
2022-11-24T19:43:34.585Z,8.14
2022-11-24T19:46:06.782Z,8.08
2022-11-24T19:48:37.981Z,8.02
2022-11-24T19:51:10.440Z,8.04
2022-11-24T19:53:37.926Z,7.99
2022-11-24T19:56:12.896Z,7.98
2022-11-24T19:58:39.979Z,8.02
2022-11-24T20:01:14.969Z,8.02
2022-11-24T20:03:42.973Z,7.96
2022-11-24T20:06:11.997Z,7.96
2022-11-24T20:08:39.576Z,7.91
2022-11-24T20:11:07.299Z,7.88
2022-11-24T20:13:35.180Z,7.88
2022-11-24T20:16:11.616Z,7.85
2022-11-24T20:18:42.107Z,7.82
2022-11-24T20:21:13.998Z,7.75
2022-11-24T20:23:41.178Z,7.67
2022-11-24T20:26:12.764Z,7.70
2022-11-24T20:28:39.478Z,7.65
2022-11-24T20:31:14.706Z,7.69
2022-11-24T20:33:42.023Z,7.67
2022-11-24T20:36:11.754Z,7.77
2022-11-24T20:38:39.324Z,7.72
2022-11-24T20:41:09.521Z,7.81
2022-11-24T20:43:36.914Z,7.79
2022-11-24T20:46:05.643Z,7.77
2022-11-24T20:48:33.050Z,7.71
2022-11-24T20:51:07.997Z,7.71
2022-11-24T20:53:34.654Z,7.68
2022-11-24T20:56:06.709Z,7.77
2022-11-24T20:58:35.183Z,7.70
2022-11-24T21:01:05.789Z,7.74
2022-11-24T21:03:32.298Z,7.71
2022-11-24T21:05:58.613Z,7.72
2022-11-24T21:08:25.147Z,7.68
2022-11-24T21:10:53.240Z,7.79
2022-11-24T21:13:19.579Z,7.80
2022-11-24T21:15:46.171Z,7.80
2022-11-24T21:18:12.608Z,7.81
2022-11-24T21:20:38.943Z,7.81
2022-11-24T21:23:05.657Z,7.86
2022-11-24T21:25:32.082Z,7.86
2022-11-24T21:27:58.463Z,7.85
2022-11-24T21:30:25.554Z,7.86
2022-11-24T21:32:51.877Z,7.88
2022-11-24T21:35:18.237Z,7.86
2022-11-24T21:37:44.544Z,7.91
2022-11-24T21:40:11.339Z,7.93
2022-11-24T21:42:37.731Z,7.97
2022-11-24T21:45:04.596Z,7.97
2022-11-24T21:47:31.001Z,8.02
2022-11-24T21:49:57.336Z,7.96
2022-11-24T21:52:23.723Z,7.97
2022-11-24T21:54:50.260Z,7.96
2022-11-24T21:57:16.738Z,8.07
2022-11-24T21:59:43.140Z,8.04
2022-11-24T22:02:13.421Z,8.06
2022-11-24T22:04:39.833Z,8.03
2022-11-24T22:07:06.322Z,8.12
2022-11-24T22:09:33.835Z,8.12
2022-11-24T22:12:00.807Z,8.12
2022-11-24T22:14:27.175Z,8.09
2022-11-24T22:16:53.506Z,8.12
2022-11-24T22:19:19.979Z,8.12
2022-11-24T22:21:46.349Z,8.14
2022-11-24T22:24:12.922Z,8.16
2022-11-24T22:26:39.310Z,8.17
2022-11-24T22:29:06.222Z,8.14
2022-11-24T22:31:33.259Z,8.19
2022-11-24T22:34:00.757Z,8.17
2022-11-24T22:36:28.921Z,8.17
2022-11-24T22:38:56.292Z,8.09
2022-11-24T22:41:23.515Z,8.13
2022-11-24T22:43:50.239Z,8.13
2022-11-24T22:46:22.463Z,8.14
2022-11-24T22:48:50.304Z,8.12
2022-11-24T22:51:19.431Z,8.14
2022-11-24T22:53:51.114Z,8.12
2022-11-24T22:56:18.434Z,8.09
2022-11-24T22:58:45.473Z,8.07
2022-11-24T23:01:19.029Z,8.09
2022-11-24T23:03:45.909Z,8.07
2022-11-24T23:06:17.640Z,8.09
2022-11-24T23:08:44.411Z,8.10
2022-11-24T23:11:14.031Z,8.16
2022-11-24T23:13:41.046Z,8.15
2022-11-24T23:16:18.388Z,8.21
2022-11-24T23:18:51.020Z,8.18
2022-11-24T23:21:29.630Z,8.26
2022-11-24T23:23:57.653Z,8.21
2022-11-24T23:26:27.591Z,8.25
2022-11-24T23:28:54.088Z,8.21
2022-11-24T23:31:24.387Z,8.24
2022-11-24T23:33:50.770Z,8.21
2022-11-24T23:36:19.023Z,8.25
2022-11-24T23:38:46.181Z,8.22
2022-11-24T23:41:15.130Z,8.28
2022-11-24T23:43:42.650Z,8.27
2022-11-24T23:46:14.924Z,8.24
2022-11-24T23:48:41.583Z,8.23
2022-11-24T23:51:19.432Z,8.22
2022-11-24T23:53:46.580Z,8.26
2022-11-24T23:56:15.765Z,8.23
2022-11-24T23:58:42.201Z,8.21
